sensor_id;sensor_type;location;lat;lon;timestamp;P1;durP1;ratioP1;P2;durP2;ratioP2
52494;SDS011;38405;53.212;5.660;2023-05-14T00:00:48;19.90;;;12.75;;
52494;SDS011;38405;53.212;5.660;2023-05-14T00:03:13;18.75;;;11.55;;
52494;SDS011;38405;53.212;5.660;2023-05-14T00:05:39;15.68;;;12.27;;
52494;SDS011;38405;53.212;5.660;2023-05-14T00:08:05;20.30;;;12.40;;
52494;SDS011;38405;53.212;5.660;2023-05-14T00:10:30;19.98;;;11.73;;
52494;SDS011;38405;53.212;5.660;2023-05-14T00:12:56;17.90;;;11.52;;
52494;SDS011;38405;53.212;5.660;2023-05-14T00:15:22;20.85;;;11.80;;
52494;SDS011;38405;53.212;5.660;2023-05-14T00:17:47;16.00;;;11.07;;
52494;SDS011;38405;53.212;5.660;2023-05-14T00:20:13;21.00;;;11.45;;
52494;SDS011;38405;53.212;5.660;2023-05-14T00:22:39;14.40;;;9.88;;
52494;SDS011;38405;53.212;5.660;2023-05-14T00:25:05;18.48;;;10.68;;
52494;SDS011;38405;53.212;5.660;2023-05-14T00:27:32;14.48;;;9.98;;
52494;SDS011;38405;53.212;5.660;2023-05-14T00:29:58;15.90;;;10.10;;
52494;SDS011;38405;53.212;5.660;2023-05-14T00:32:24;13.82;;;9.35;;
52494;SDS011;38405;53.212;5.660;2023-05-14T00:34:49;21.08;;;10.20;;
52494;SDS011;38405;53.212;5.660;2023-05-14T00:37:15;17.92;;;9.18;;
52494;SDS011;38405;53.212;5.660;2023-05-14T00:39:41;13.73;;;9.88;;
52494;SDS011;38405;53.212;5.660;2023-05-14T00:42:06;13.95;;;8.98;;
52494;SDS011;38405;53.212;5.660;2023-05-14T00:44:32;13.38;;;8.52;;
52494;SDS011;38405;53.212;5.660;2023-05-14T00:46:58;15.88;;;8.80;;
52494;SDS011;38405;53.212;5.660;2023-05-14T00:49:24;15.25;;;8.43;;
52494;SDS011;38405;53.212;5.660;2023-05-14T00:51:51;20.85;;;8.30;;
52494;SDS011;38405;53.212;5.660;2023-05-14T00:54:17;14.93;;;8.38;;
52494;SDS011;38405;53.212;5.660;2023-05-14T00:56:45;16.73;;;8.52;;
52494;SDS011;38405;53.212;5.660;2023-05-14T00:59:11;13.35;;;9.57;;
52494;SDS011;38405;53.212;5.660;2023-05-14T01:01:37;18.75;;;10.80;;
52494;SDS011;38405;53.212;5.660;2023-05-14T01:04:03;18.85;;;12.05;;
52494;SDS011;38405;53.212;5.660;2023-05-14T01:06:36;16.58;;;11.00;;
52494;SDS011;38405;53.212;5.660;2023-05-14T01:17:08;15.75;;;8.98;;
52494;SDS011;38405;53.212;5.660;2023-05-14T01:19:38;15.85;;;10.02;;
52494;SDS011;38405;53.212;5.660;2023-05-14T01:22:05;17.85;;;10.32;;
52494;SDS011;38405;53.212;5.660;2023-05-14T01:24:31;15.00;;;9.75;;
52494;SDS011;38405;53.212;5.660;2023-05-14T01:27:00;15.73;;;9.13;;
52494;SDS011;38405;53.212;5.660;2023-05-14T01:29:35;20.15;;;10.25;;
52494;SDS011;38405;53.212;5.660;2023-05-14T01:32:05;19.83;;;9.40;;
52494;SDS011;38405;53.212;5.660;2023-05-14T01:34:34;14.27;;;8.15;;
52494;SDS011;38405;53.212;5.660;2023-05-14T01:37:00;14.70;;;8.55;;
52494;SDS011;38405;53.212;5.660;2023-05-14T01:39:28;14.63;;;9.40;;
52494;SDS011;38405;53.212;5.660;2023-05-14T01:41:56;15.68;;;8.20;;
52494;SDS011;38405;53.212;5.660;2023-05-14T01:44:22;14.77;;;8.32;;
52494;SDS011;38405;53.212;5.660;2023-05-14T01:46:49;12.70;;;8.63;;
52494;SDS011;38405;53.212;5.660;2023-05-14T01:49:14;13.68;;;8.70;;
52494;SDS011;38405;53.212;5.660;2023-05-14T01:51:42;12.95;;;9.48;;
52494;SDS011;38405;53.212;5.660;2023-05-14T01:54:08;15.13;;;9.60;;
52494;SDS011;38405;53.212;5.660;2023-05-14T01:56:33;15.07;;;9.30;;
52494;SDS011;38405;53.212;5.660;2023-05-14T01:58:59;16.75;;;10.27;;
52494;SDS011;38405;53.212;5.660;2023-05-14T02:01:25;15.93;;;11.68;;
52494;SDS011;38405;53.212;5.660;2023-05-14T02:03:50;19.98;;;10.43;;
52494;SDS011;38405;53.212;5.660;2023-05-14T02:06:16;16.25;;;10.30;;
52494;SDS011;38405;53.212;5.660;2023-05-14T02:08:41;13.82;;;10.90;;
52494;SDS011;38405;53.212;5.660;2023-05-14T02:11:07;17.92;;;12.55;;
52494;SDS011;38405;53.212;5.660;2023-05-14T02:13:33;24.20;;;11.50;;
52494;SDS011;38405;53.212;5.660;2023-05-14T02:15:58;18.75;;;10.25;;
52494;SDS011;38405;53.212;5.660;2023-05-14T02:18:24;15.98;;;11.88;;
52494;SDS011;38405;53.212;5.660;2023-05-14T02:20:49;19.27;;;11.63;;
52494;SDS011;38405;53.212;5.660;2023-05-14T02:23:15;12.48;;;9.60;;
52494;SDS011;38405;53.212;5.660;2023-05-14T02:25:41;15.85;;;10.20;;
52494;SDS011;38405;53.212;5.660;2023-05-14T02:28:07;18.45;;;10.23;;
52494;SDS011;38405;53.212;5.660;2023-05-14T02:30:33;22.10;;;9.57;;
52494;SDS011;38405;53.212;5.660;2023-05-14T02:32:58;18.02;;;9.73;;
52494;SDS011;38405;53.212;5.660;2023-05-14T02:35:24;23.38;;;9.95;;
52494;SDS011;38405;53.212;5.660;2023-05-14T02:37:50;16.08;;;8.95;;
52494;SDS011;38405;53.212;5.660;2023-05-14T02:40:15;17.48;;;9.45;;
52494;SDS011;38405;53.212;5.660;2023-05-14T02:42:41;16.02;;;8.90;;
52494;SDS011;38405;53.212;5.660;2023-05-14T02:45:07;17.67;;;9.23;;
52494;SDS011;38405;53.212;5.660;2023-05-14T02:47:33;12.18;;;8.10;;
52494;SDS011;38405;53.212;5.660;2023-05-14T02:49:58;16.95;;;7.88;;
52494;SDS011;38405;53.212;5.660;2023-05-14T02:52:24;15.30;;;7.28;;
52494;SDS011;38405;53.212;5.660;2023-05-14T02:54:49;15.98;;;6.85;;
52494;SDS011;38405;53.212;5.660;2023-05-14T02:57:15;16.80;;;7.05;;
52494;SDS011;38405;53.212;5.660;2023-05-14T02:59:41;13.07;;;7.05;;
52494;SDS011;38405;53.212;5.660;2023-05-14T03:02:06;18.58;;;7.10;;
52494;SDS011;38405;53.212;5.660;2023-05-14T03:04:32;13.10;;;6.70;;
52494;SDS011;38405;53.212;5.660;2023-05-14T03:06:58;12.27;;;6.78;;
52494;SDS011;38405;53.212;5.660;2023-05-14T03:09:23;18.58;;;6.38;;
52494;SDS011;38405;53.212;5.660;2023-05-14T03:11:49;18.13;;;6.28;;
52494;SDS011;38405;53.212;5.660;2023-05-14T03:14:14;18.70;;;6.25;;
52494;SDS011;38405;53.212;5.660;2023-05-14T03:16:40;19.70;;;7.10;;
52494;SDS011;38405;53.212;5.660;2023-05-14T03:19:06;19.50;;;6.50;;
52494;SDS011;38405;53.212;5.660;2023-05-14T03:21:33;14.10;;;6.75;;
52494;SDS011;38405;53.212;5.660;2023-05-14T03:23:59;12.85;;;6.20;;
52494;SDS011;38405;53.212;5.660;2023-05-14T03:26:24;16.13;;;6.32;;
52494;SDS011;38405;53.212;5.660;2023-05-14T03:28:50;15.20;;;7.15;;
52494;SDS011;38405;53.212;5.660;2023-05-14T03:31:16;14.23;;;6.55;;
52494;SDS011;38405;53.212;5.660;2023-05-14T03:33:41;19.67;;;7.30;;
52494;SDS011;38405;53.212;5.660;2023-05-14T03:36:07;17.02;;;6.05;;
52494;SDS011;38405;53.212;5.660;2023-05-14T03:38:33;18.52;;;6.85;;
52494;SDS011;38405;53.212;5.660;2023-05-14T03:40:58;20.35;;;7.72;;
52494;SDS011;38405;53.212;5.660;2023-05-14T03:43:24;18.83;;;6.93;;
52494;SDS011;38405;53.212;5.660;2023-05-14T03:45:50;14.55;;;6.57;;
52494;SDS011;38405;53.212;5.660;2023-05-14T03:48:19;16.27;;;7.80;;
52494;SDS011;38405;53.212;5.660;2023-05-14T03:50:45;20.88;;;7.88;;
52494;SDS011;38405;53.212;5.660;2023-05-14T03:53:11;14.88;;;6.43;;
52494;SDS011;38405;53.212;5.660;2023-05-14T03:55:36;19.00;;;7.78;;
52494;SDS011;38405;53.212;5.660;2023-05-14T03:58:02;15.55;;;6.97;;
52494;SDS011;38405;53.212;5.660;2023-05-14T04:00:31;19.75;;;7.25;;
52494;SDS011;38405;53.212;5.660;2023-05-14T04:02:59;17.23;;;7.13;;
52494;SDS011;38405;53.212;5.660;2023-05-14T04:05:25;24.70;;;7.63;;
52494;SDS011;38405;53.212;5.660;2023-05-14T04:07:51;19.08;;;7.95;;
52494;SDS011;38405;53.212;5.660;2023-05-14T04:10:16;19.75;;;7.88;;
52494;SDS011;38405;53.212;5.660;2023-05-14T04:12:42;22.05;;;7.50;;
52494;SDS011;38405;53.212;5.660;2023-05-14T04:15:08;17.73;;;7.82;;
52494;SDS011;38405;53.212;5.660;2023-05-14T04:17:34;19.65;;;8.48;;
52494;SDS011;38405;53.212;5.660;2023-05-14T04:19:59;18.73;;;9.25;;
52494;SDS011;38405;53.212;5.660;2023-05-14T04:22:25;24.92;;;9.98;;
52494;SDS011;38405;53.212;5.660;2023-05-14T04:24:51;15.85;;;8.45;;
52494;SDS011;38405;53.212;5.660;2023-05-14T04:27:20;18.55;;;8.35;;
52494;SDS011;38405;53.212;5.660;2023-05-14T04:29:46;14.25;;;8.25;;
52494;SDS011;38405;53.212;5.660;2023-05-14T04:32:12;14.88;;;8.20;;
52494;SDS011;38405;53.212;5.660;2023-05-14T04:34:38;21.30;;;8.48;;
52494;SDS011;38405;53.212;5.660;2023-05-14T04:37:05;18.40;;;8.27;;
52494;SDS011;38405;53.212;5.660;2023-05-14T04:39:30;17.63;;;7.78;;
52494;SDS011;38405;53.212;5.660;2023-05-14T04:41:56;13.27;;;7.28;;
52494;SDS011;38405;53.212;5.660;2023-05-14T04:44:22;14.32;;;7.65;;
52494;SDS011;38405;53.212;5.660;2023-05-14T04:46:47;20.40;;;8.20;;
52494;SDS011;38405;53.212;5.660;2023-05-14T04:49:13;17.13;;;7.45;;
52494;SDS011;38405;53.212;5.660;2023-05-14T04:51:39;19.88;;;7.07;;
52494;SDS011;38405;53.212;5.660;2023-05-14T04:54:04;12.90;;;6.53;;
52494;SDS011;38405;53.212;5.660;2023-05-14T04:56:30;12.85;;;6.70;;
52494;SDS011;38405;53.212;5.660;2023-05-14T04:58:55;14.82;;;6.60;;
52494;SDS011;38405;53.212;5.660;2023-05-14T05:01:21;15.00;;;6.43;;
52494;SDS011;38405;53.212;5.660;2023-05-14T05:03:47;18.55;;;6.13;;
52494;SDS011;38405;53.212;5.660;2023-05-14T05:06:13;13.77;;;6.03;;
52494;SDS011;38405;53.212;5.660;2023-05-14T05:08:38;17.50;;;6.78;;
52494;SDS011;38405;53.212;5.660;2023-05-14T05:11:05;14.70;;;6.30;;
52494;SDS011;38405;53.212;5.660;2023-05-14T05:13:30;17.38;;;6.40;;
52494;SDS011;38405;53.212;5.660;2023-05-14T05:15:56;19.70;;;6.13;;
52494;SDS011;38405;53.212;5.660;2023-05-14T05:18:22;12.57;;;5.50;;
52494;SDS011;38405;53.212;5.660;2023-05-14T05:20:47;14.18;;;5.50;;
52494;SDS011;38405;53.212;5.660;2023-05-14T05:23:13;20.58;;;6.18;;
52494;SDS011;38405;53.212;5.660;2023-05-14T05:25:39;11.52;;;4.60;;
52494;SDS011;38405;53.212;5.660;2023-05-14T05:28:05;14.23;;;4.55;;
52494;SDS011;38405;53.212;5.660;2023-05-14T05:30:31;15.15;;;4.90;;
52494;SDS011;38405;53.212;5.660;2023-05-14T05:32:56;9.57;;;4.35;;
52494;SDS011;38405;53.212;5.660;2023-05-14T05:35:22;12.38;;;5.05;;
52494;SDS011;38405;53.212;5.660;2023-05-14T05:37:48;8.20;;;4.40;;
52494;SDS011;38405;53.212;5.660;2023-05-14T05:40:14;10.35;;;4.78;;
52494;SDS011;38405;53.212;5.660;2023-05-14T05:42:40;16.40;;;5.28;;
52494;SDS011;38405;53.212;5.660;2023-05-14T05:45:06;14.48;;;5.30;;
52494;SDS011;38405;53.212;5.660;2023-05-14T05:47:32;17.77;;;5.32;;
52494;SDS011;38405;53.212;5.660;2023-05-14T05:49:58;14.60;;;5.43;;
52494;SDS011;38405;53.212;5.660;2023-05-14T05:52:24;14.65;;;5.22;;
52494;SDS011;38405;53.212;5.660;2023-05-14T05:54:49;12.75;;;5.32;;
52494;SDS011;38405;53.212;5.660;2023-05-14T05:57:15;12.57;;;4.72;;
52494;SDS011;38405;53.212;5.660;2023-05-14T05:59:41;11.70;;;5.40;;
52494;SDS011;38405;53.212;5.660;2023-05-14T06:02:07;14.90;;;5.25;;
52494;SDS011;38405;53.212;5.660;2023-05-14T06:04:32;10.38;;;4.78;;
52494;SDS011;38405;53.212;5.660;2023-05-14T06:06:58;11.50;;;4.93;;
52494;SDS011;38405;53.212;5.660;2023-05-14T06:09:24;16.73;;;5.28;;
52494;SDS011;38405;53.212;5.660;2023-05-14T06:11:49;10.70;;;4.60;;
52494;SDS011;38405;53.212;5.660;2023-05-14T06:14:15;17.77;;;5.15;;
52494;SDS011;38405;53.212;5.660;2023-05-14T06:16:41;15.57;;;5.30;;
52494;SDS011;38405;53.212;5.660;2023-05-14T06:19:06;14.73;;;4.63;;
52494;SDS011;38405;53.212;5.660;2023-05-14T06:21:32;11.15;;;5.07;;
52494;SDS011;38405;53.212;5.660;2023-05-14T06:23:58;14.30;;;4.70;;
52494;SDS011;38405;53.212;5.660;2023-05-14T06:26:24;13.90;;;4.68;;
52494;SDS011;38405;53.212;5.660;2023-05-14T06:28:50;11.13;;;4.70;;
52494;SDS011;38405;53.212;5.660;2023-05-14T06:31:16;8.80;;;4.50;;
52494;SDS011;38405;53.212;5.660;2023-05-14T06:33:42;12.05;;;5.50;;
52494;SDS011;38405;53.212;5.660;2023-05-14T06:36:08;15.13;;;4.68;;
52494;SDS011;38405;53.212;5.660;2023-05-14T06:38:34;14.77;;;4.63;;
52494;SDS011;38405;53.212;5.660;2023-05-14T06:40:59;11.05;;;4.68;;
52494;SDS011;38405;53.212;5.660;2023-05-14T06:43:25;19.70;;;5.45;;
52494;SDS011;38405;53.212;5.660;2023-05-14T06:45:51;16.98;;;4.97;;
52494;SDS011;38405;53.212;5.660;2023-05-14T06:48:17;12.77;;;4.80;;
52494;SDS011;38405;53.212;5.660;2023-05-14T06:50:44;13.02;;;4.75;;
52494;SDS011;38405;53.212;5.660;2023-05-14T06:53:10;14.77;;;5.03;;
52494;SDS011;38405;53.212;5.660;2023-05-14T06:55:36;15.68;;;4.90;;
52494;SDS011;38405;53.212;5.660;2023-05-14T06:58:02;15.90;;;4.82;;
52494;SDS011;38405;53.212;5.660;2023-05-14T07:00:28;15.35;;;4.53;;
52494;SDS011;38405;53.212;5.660;2023-05-14T07:02:54;10.38;;;4.20;;
52494;SDS011;38405;53.212;5.660;2023-05-14T07:05:20;12.05;;;4.80;;
52494;SDS011;38405;53.212;5.660;2023-05-14T07:07:45;12.80;;;4.50;;
52494;SDS011;38405;53.212;5.660;2023-05-14T07:10:11;13.15;;;4.28;;
52494;SDS011;38405;53.212;5.660;2023-05-14T07:12:36;10.18;;;4.10;;
52494;SDS011;38405;53.212;5.660;2023-05-14T07:15:02;6.93;;;3.83;;
52494;SDS011;38405;53.212;5.660;2023-05-14T07:17:28;8.25;;;3.88;;
52494;SDS011;38405;53.212;5.660;2023-05-14T07:19:54;11.30;;;4.22;;
52494;SDS011;38405;53.212;5.660;2023-05-14T07:22:20;14.07;;;4.60;;
52494;SDS011;38405;53.212;5.660;2023-05-14T07:24:46;13.60;;;4.72;;
52494;SDS011;38405;53.212;5.660;2023-05-14T07:27:11;9.93;;;3.65;;
52494;SDS011;38405;53.212;5.660;2023-05-14T07:29:37;12.85;;;4.05;;
52494;SDS011;38405;53.212;5.660;2023-05-14T07:32:03;12.43;;;4.50;;
52494;SDS011;38405;53.212;5.660;2023-05-14T07:34:29;14.35;;;4.18;;
52494;SDS011;38405;53.212;5.660;2023-05-14T07:36:54;12.45;;;4.20;;
52494;SDS011;38405;53.212;5.660;2023-05-14T07:39:20;11.27;;;4.38;;
52494;SDS011;38405;53.212;5.660;2023-05-14T07:41:46;12.13;;;4.50;;
52494;SDS011;38405;53.212;5.660;2023-05-14T07:44:12;13.63;;;5.25;;
52494;SDS011;38405;53.212;5.660;2023-05-14T07:46:37;12.77;;;4.65;;
52494;SDS011;38405;53.212;5.660;2023-05-14T07:49:03;12.02;;;5.00;;
52494;SDS011;38405;53.212;5.660;2023-05-14T07:51:29;14.55;;;4.70;;
52494;SDS011;38405;53.212;5.660;2023-05-14T07:53:55;14.52;;;4.45;;
52494;SDS011;38405;53.212;5.660;2023-05-14T07:56:21;13.75;;;4.50;;
52494;SDS011;38405;53.212;5.660;2023-05-14T07:58:47;15.43;;;5.03;;
52494;SDS011;38405;53.212;5.660;2023-05-14T08:01:12;10.48;;;3.83;;
52494;SDS011;38405;53.212;5.660;2023-05-14T08:03:38;9.63;;;4.00;;
52494;SDS011;38405;53.212;5.660;2023-05-14T08:06:04;10.77;;;4.30;;
52494;SDS011;38405;53.212;5.660;2023-05-14T08:08:30;8.88;;;4.10;;
52494;SDS011;38405;53.212;5.660;2023-05-14T08:10:55;9.57;;;3.90;;
52494;SDS011;38405;53.212;5.660;2023-05-14T08:13:21;9.15;;;3.80;;
52494;SDS011;38405;53.212;5.660;2023-05-14T08:15:47;11.57;;;3.83;;
52494;SDS011;38405;53.212;5.660;2023-05-14T08:18:12;11.07;;;4.15;;
52494;SDS011;38405;53.212;5.660;2023-05-14T08:20:38;9.98;;;4.03;;
52494;SDS011;38405;53.212;5.660;2023-05-14T08:23:04;8.02;;;4.00;;
52494;SDS011;38405;53.212;5.660;2023-05-14T08:25:31;12.43;;;3.90;;
52494;SDS011;38405;53.212;5.660;2023-05-14T08:27:57;9.25;;;3.70;;
52494;SDS011;38405;53.212;5.660;2023-05-14T08:30:23;13.25;;;4.30;;
52494;SDS011;38405;53.212;5.660;2023-05-14T08:32:49;13.63;;;4.35;;
52494;SDS011;38405;53.212;5.660;2023-05-14T08:35:18;12.77;;;4.10;;
52494;SDS011;38405;53.212;5.660;2023-05-14T08:37:44;9.80;;;4.15;;
52494;SDS011;38405;53.212;5.660;2023-05-14T08:40:10;11.43;;;3.85;;
52494;SDS011;38405;53.212;5.660;2023-05-14T08:42:37;14.38;;;4.10;;
52494;SDS011;38405;53.212;5.660;2023-05-14T08:45:17;13.07;;;4.00;;
52494;SDS011;38405;53.212;5.660;2023-05-14T08:47:46;12.25;;;3.55;;
52494;SDS011;38405;53.212;5.660;2023-05-14T08:50:14;12.95;;;3.75;;
52494;SDS011;38405;53.212;5.660;2023-05-14T08:52:40;9.95;;;3.72;;
52494;SDS011;38405;53.212;5.660;2023-05-14T08:55:05;12.07;;;3.50;;
52494;SDS011;38405;53.212;5.660;2023-05-14T08:57:32;10.95;;;3.47;;
52494;SDS011;38405;53.212;5.660;2023-05-14T08:59:59;12.15;;;3.97;;
52494;SDS011;38405;53.212;5.660;2023-05-14T09:02:29;11.48;;;3.85;;
52494;SDS011;38405;53.212;5.660;2023-05-14T09:04:57;7.63;;;3.10;;
52494;SDS011;38405;53.212;5.660;2023-05-14T09:07:24;11.38;;;4.13;;
52494;SDS011;38405;53.212;5.660;2023-05-14T09:09:50;8.65;;;3.42;;
52494;SDS011;38405;53.212;5.660;2023-05-14T09:12:16;8.05;;;3.33;;
52494;SDS011;38405;53.212;5.660;2023-05-14T09:14:42;7.70;;;3.65;;
52494;SDS011;38405;53.212;5.660;2023-05-14T09:17:09;8.13;;;3.10;;
52494;SDS011;38405;53.212;5.660;2023-05-14T09:19:38;9.55;;;4.25;;
52494;SDS011;38405;53.212;5.660;2023-05-14T09:22:11;12.15;;;4.47;;
52494;SDS011;38405;53.212;5.660;2023-05-14T09:24:38;7.65;;;3.47;;
52494;SDS011;38405;53.212;5.660;2023-05-14T09:27:04;10.90;;;3.85;;
52494;SDS011;38405;53.212;5.660;2023-05-14T09:29:30;11.98;;;4.05;;
52494;SDS011;38405;53.212;5.660;2023-05-14T09:31:57;10.57;;;3.60;;
52494;SDS011;38405;53.212;5.660;2023-05-14T09:34:25;11.27;;;3.58;;
52494;SDS011;38405;53.212;5.660;2023-05-14T09:36:56;6.95;;;3.30;;
52494;SDS011;38405;53.212;5.660;2023-05-14T09:39:23;8.90;;;3.53;;
52494;SDS011;38405;53.212;5.660;2023-05-14T09:41:49;6.43;;;3.55;;
52494;SDS011;38405;53.212;5.660;2023-05-14T09:44:18;8.18;;;3.80;;
52494;SDS011;38405;53.212;5.660;2023-05-14T09:46:45;11.60;;;4.28;;
52494;SDS011;38405;53.212;5.660;2023-05-14T09:49:11;9.20;;;4.03;;
52494;SDS011;38405;53.212;5.660;2023-05-14T09:51:37;7.82;;;3.85;;
52494;SDS011;38405;53.212;5.660;2023-05-14T09:54:03;9.50;;;3.97;;
52494;SDS011;38405;53.212;5.660;2023-05-14T09:56:30;9.10;;;4.43;;
52494;SDS011;38405;53.212;5.660;2023-05-14T09:58:57;8.35;;;3.90;;
52494;SDS011;38405;53.212;5.660;2023-05-14T10:01:22;9.07;;;3.88;;
52494;SDS011;38405;53.212;5.660;2023-05-14T10:03:49;9.52;;;3.67;;
52494;SDS011;38405;53.212;5.660;2023-05-14T10:06:15;10.10;;;4.07;;
52494;SDS011;38405;53.212;5.660;2023-05-14T10:08:43;8.73;;;3.92;;
52494;SDS011;38405;53.212;5.660;2023-05-14T10:11:13;8.55;;;4.13;;
52494;SDS011;38405;53.212;5.660;2023-05-14T10:13:45;8.48;;;3.80;;
52494;SDS011;38405;53.212;5.660;2023-05-14T10:19:02;6.47;;;4.15;;
52494;SDS011;38405;53.212;5.660;2023-05-14T10:21:34;8.07;;;4.15;;
52494;SDS011;38405;53.212;5.660;2023-05-14T10:24:01;10.02;;;4.55;;
52494;SDS011;38405;53.212;5.660;2023-05-14T10:26:28;12.98;;;4.57;;
52494;SDS011;38405;53.212;5.660;2023-05-14T10:28:56;8.02;;;4.45;;
52494;SDS011;38405;53.212;5.660;2023-05-14T10:31:22;10.73;;;4.25;;
52494;SDS011;38405;53.212;5.660;2023-05-14T10:34:11;11.48;;;4.63;;
52494;SDS011;38405;53.212;5.660;2023-05-14T10:39:39;12.23;;;4.50;;
52494;SDS011;38405;53.212;5.660;2023-05-14T10:42:09;11.27;;;4.70;;
52494;SDS011;38405;53.212;5.660;2023-05-14T10:44:39;10.52;;;4.93;;
52494;SDS011;38405;53.212;5.660;2023-05-14T10:47:11;14.60;;;5.18;;
52494;SDS011;38405;53.212;5.660;2023-05-14T10:49:37;10.55;;;5.40;;
52494;SDS011;38405;53.212;5.660;2023-05-14T10:52:06;10.50;;;5.00;;
52494;SDS011;38405;53.212;5.660;2023-05-14T10:54:35;10.50;;;4.85;;
52494;SDS011;38405;53.212;5.660;2023-05-14T10:57:01;9.82;;;5.50;;
52494;SDS011;38405;53.212;5.660;2023-05-14T10:59:26;13.02;;;4.80;;
52494;SDS011;38405;53.212;5.660;2023-05-14T11:01:52;11.02;;;5.00;;
52494;SDS011;38405;53.212;5.660;2023-05-14T11:04:18;11.40;;;5.32;;
52494;SDS011;38405;53.212;5.660;2023-05-14T11:06:47;14.13;;;4.90;;
52494;SDS011;38405;53.212;5.660;2023-05-14T11:09:15;10.38;;;5.15;;
52494;SDS011;38405;53.212;5.660;2023-05-14T11:11:41;9.35;;;4.57;;
52494;SDS011;38405;53.212;5.660;2023-05-14T11:14:08;11.27;;;5.07;;
52494;SDS011;38405;53.212;5.660;2023-05-14T11:16:34;10.80;;;4.80;;
52494;SDS011;38405;53.212;5.660;2023-05-14T11:19:02;8.75;;;4.72;;
52494;SDS011;38405;53.212;5.660;2023-05-14T11:21:28;11.43;;;4.72;;
52494;SDS011;38405;53.212;5.660;2023-05-14T11:24:00;11.07;;;4.65;;
52494;SDS011;38405;53.212;5.660;2023-05-14T11:26:27;13.85;;;5.40;;
52494;SDS011;38405;53.212;5.660;2023-05-14T11:28:53;8.75;;;5.05;;
52494;SDS011;38405;53.212;5.660;2023-05-14T11:31:20;12.65;;;5.57;;
52494;SDS011;38405;53.212;5.660;2023-05-14T11:33:46;11.88;;;5.22;;
52494;SDS011;38405;53.212;5.660;2023-05-14T11:36:11;8.98;;;5.15;;
52494;SDS011;38405;53.212;5.660;2023-05-14T11:38:47;6.68;;;5.20;;
52494;SDS011;38405;53.212;5.660;2023-05-14T11:41:13;9.40;;;5.40;;
52494;SDS011;38405;53.212;5.660;2023-05-14T11:43:40;7.80;;;5.22;;
52494;SDS011;38405;53.212;5.660;2023-05-14T11:46:06;14.75;;;5.75;;
52494;SDS011;38405;53.212;5.660;2023-05-14T11:48:31;8.32;;;5.30;;
52494;SDS011;38405;53.212;5.660;2023-05-14T11:50:57;9.52;;;5.10;;
52494;SDS011;38405;53.212;5.660;2023-05-14T11:53:24;11.13;;;5.65;;
52494;SDS011;38405;53.212;5.660;2023-05-14T11:55:51;9.63;;;5.18;;
52494;SDS011;38405;53.212;5.660;2023-05-14T11:58:18;10.63;;;5.35;;
52494;SDS011;38405;53.212;5.660;2023-05-14T12:00:45;9.68;;;5.90;;
52494;SDS011;38405;53.212;5.660;2023-05-14T12:03:13;14.18;;;6.13;;
52494;SDS011;38405;53.212;5.660;2023-05-14T12:05:39;9.63;;;5.90;;
52494;SDS011;38405;53.212;5.660;2023-05-14T12:08:22;9.57;;;6.15;;
52494;SDS011;38405;53.212;5.660;2023-05-14T12:10:51;12.63;;;6.38;;
52494;SDS011;38405;53.212;5.660;2023-05-14T12:13:17;10.13;;;5.63;;
52494;SDS011;38405;53.212;5.660;2023-05-14T12:15:52;9.30;;;5.88;;
52494;SDS011;38405;53.212;5.660;2023-05-14T12:18:19;13.77;;;6.70;;
52494;SDS011;38405;53.212;5.660;2023-05-14T12:20:48;10.02;;;6.35;;
52494;SDS011;38405;53.212;5.660;2023-05-14T12:23:16;14.40;;;7.28;;
52494;SDS011;38405;53.212;5.660;2023-05-14T12:25:51;11.52;;;6.90;;
52494;SDS011;38405;53.212;5.660;2023-05-14T12:28:17;9.23;;;6.63;;
52494;SDS011;38405;53.212;5.660;2023-05-14T12:30:46;9.63;;;7.15;;
52494;SDS011;38405;53.212;5.660;2023-05-14T12:33:13;11.20;;;7.43;;
52494;SDS011;38405;53.212;5.660;2023-05-14T12:35:39;12.18;;;7.18;;
52494;SDS011;38405;53.212;5.660;2023-05-14T12:38:05;14.77;;;7.85;;
52494;SDS011;38405;53.212;5.660;2023-05-14T12:40:30;14.45;;;6.50;;
52494;SDS011;38405;53.212;5.660;2023-05-14T12:42:56;12.70;;;7.43;;
52494;SDS011;38405;53.212;5.660;2023-05-14T12:45:22;12.80;;;7.00;;
52494;SDS011;38405;53.212;5.660;2023-05-14T12:47:47;8.50;;;6.43;;
52494;SDS011;38405;53.212;5.660;2023-05-14T12:50:13;14.25;;;6.30;;
52494;SDS011;38405;53.212;5.660;2023-05-14T12:52:39;12.55;;;6.20;;
52494;SDS011;38405;53.212;5.660;2023-05-14T12:55:05;11.35;;;5.95;;
52494;SDS011;38405;53.212;5.660;2023-05-14T12:57:32;6.55;;;5.85;;
52494;SDS011;38405;53.212;5.660;2023-05-14T12:59:59;14.65;;;6.50;;
52494;SDS011;38405;53.212;5.660;2023-05-14T13:02:25;9.38;;;6.32;;
52494;SDS011;38405;53.212;5.660;2023-05-14T13:04:50;10.75;;;6.32;;
52494;SDS011;38405;53.212;5.660;2023-05-14T13:07:16;9.90;;;5.95;;
52494;SDS011;38405;53.212;5.660;2023-05-14T13:09:42;11.40;;;6.78;;
52494;SDS011;38405;53.212;5.660;2023-05-14T13:12:08;11.75;;;6.82;;
52494;SDS011;38405;53.212;5.660;2023-05-14T13:14:33;9.52;;;6.35;;
52494;SDS011;38405;53.212;5.660;2023-05-14T13:17:00;10.32;;;6.75;;
52494;SDS011;38405;53.212;5.660;2023-05-14T13:19:26;13.40;;;6.35;;
52494;SDS011;38405;53.212;5.660;2023-05-14T13:21:51;10.02;;;6.47;;
52494;SDS011;38405;53.212;5.660;2023-05-14T13:24:17;11.15;;;6.53;;
52494;SDS011;38405;53.212;5.660;2023-05-14T13:26:43;10.70;;;6.47;;
52494;SDS011;38405;53.212;5.660;2023-05-14T13:29:09;10.55;;;5.75;;
52494;SDS011;38405;53.212;5.660;2023-05-14T13:31:35;11.00;;;6.22;;
52494;SDS011;38405;53.212;5.660;2023-05-14T13:34:00;10.93;;;7.00;;
52494;SDS011;38405;53.212;5.660;2023-05-14T13:36:26;14.20;;;7.40;;
52494;SDS011;38405;53.212;5.660;2023-05-14T13:38:52;11.45;;;6.13;;
52494;SDS011;38405;53.212;5.660;2023-05-14T13:41:17;13.27;;;7.28;;
52494;SDS011;38405;53.212;5.660;2023-05-14T13:43:43;13.68;;;6.55;;
52494;SDS011;38405;53.212;5.660;2023-05-14T13:46:09;14.93;;;6.25;;
52494;SDS011;38405;53.212;5.660;2023-05-14T13:48:34;13.30;;;7.43;;
52494;SDS011;38405;53.212;5.660;2023-05-14T13:51:01;15.57;;;7.45;;
52494;SDS011;38405;53.212;5.660;2023-05-14T13:53:27;16.45;;;8.65;;
52494;SDS011;38405;53.212;5.660;2023-05-14T13:55:55;17.50;;;8.95;;
52494;SDS011;38405;53.212;5.660;2023-05-14T13:58:22;11.43;;;7.78;;
52494;SDS011;38405;53.212;5.660;2023-05-14T14:00:49;17.08;;;8.70;;
52494;SDS011;38405;53.212;5.660;2023-05-14T14:03:16;13.13;;;7.43;;
52494;SDS011;38405;53.212;5.660;2023-05-14T14:05:41;12.13;;;7.65;;
52494;SDS011;38405;53.212;5.660;2023-05-14T14:08:07;13.25;;;8.20;;
52494;SDS011;38405;53.212;5.660;2023-05-14T14:10:33;12.52;;;8.45;;
52494;SDS011;38405;53.212;5.660;2023-05-14T14:12:58;14.48;;;8.05;;
52494;SDS011;38405;53.212;5.660;2023-05-14T14:15:24;12.98;;;7.78;;
52494;SDS011;38405;53.212;5.660;2023-05-14T14:17:50;15.18;;;8.68;;
52494;SDS011;38405;53.212;5.660;2023-05-14T14:20:15;9.93;;;8.30;;
52494;SDS011;38405;53.212;5.660;2023-05-14T14:22:41;15.10;;;8.07;;
52494;SDS011;38405;53.212;5.660;2023-05-14T14:25:08;12.02;;;7.97;;
52494;SDS011;38405;53.212;5.660;2023-05-14T14:27:35;10.88;;;7.25;;
52494;SDS011;38405;53.212;5.660;2023-05-14T14:30:04;17.27;;;9.05;;
52494;SDS011;38405;53.212;5.660;2023-05-14T14:32:39;12.63;;;7.05;;
52494;SDS011;38405;53.212;5.660;2023-05-14T14:37:39;11.43;;;7.38;;
52494;SDS011;38405;53.212;5.660;2023-05-14T14:40:05;13.82;;;8.05;;
52494;SDS011;38405;53.212;5.660;2023-05-14T14:42:35;13.10;;;8.50;;
52494;SDS011;38405;53.212;5.660;2023-05-14T14:45:02;12.25;;;7.75;;
52494;SDS011;38405;53.212;5.660;2023-05-14T14:47:29;14.63;;;7.85;;